createdAt,value
2023-03-26T00:00:34.292Z,99774.78
2023-03-26T00:03:05.321Z,99774.72
2023-03-26T00:05:35.591Z,99765.19
2023-03-26T00:08:09.009Z,99769.44
2023-03-26T00:10:40.959Z,99760.75
2023-03-26T00:13:11.615Z,99770.28
2023-03-26T00:15:41.730Z,99751.34
2023-03-26T00:18:11.878Z,99759.97
2023-03-26T00:20:42.124Z,99767.81
2023-03-26T00:23:12.261Z,99756.59
2023-03-26T00:25:43.701Z,99762.72
2023-03-26T00:28:13.906Z,99761.94
2023-03-26T00:30:44.818Z,99755.91
2023-03-26T00:33:21.978Z,99749.09
2023-03-26T00:35:54.592Z,99748.19
2023-03-26T00:38:26.376Z,99746.44
2023-03-26T00:41:06.119Z,99744.69
2023-03-26T00:43:36.817Z,99749.91
2023-03-26T00:46:07.008Z,99742.25
2023-03-26T00:51:17.560Z,99743.13
2023-03-26T00:53:49.924Z,99738.88
2023-03-26T00:56:20.140Z,99738.94
2023-03-26T00:58:50.381Z,99732.91
2023-03-26T01:01:29.150Z,99725.97
2023-03-26T01:04:24.371Z,99725.97
2023-03-26T01:06:55.806Z,99733.81
2023-03-26T01:09:34.709Z,99734.66
2023-03-26T01:12:08.802Z,99731.22
2023-03-26T01:14:39.772Z,99732.09
2023-03-26T01:17:12.844Z,99732.09
2023-03-26T01:19:49.782Z,99732.03
2023-03-26T01:22:27.640Z,99730.22
2023-03-26T01:24:57.706Z,99734.56
2023-03-26T01:27:41.919Z,99733.66
2023-03-26T01:30:42.499Z,99731.09
2023-03-26T01:33:30.435Z,99734.59
2023-03-26T01:36:16.597Z,99725.91
2023-03-26T01:38:52.265Z,99722.44
2023-03-26T01:41:34.122Z,99724.13
2023-03-26T01:44:11.272Z,99723.31
2023-03-26T01:46:42.921Z,99720.78
2023-03-26T01:49:13.685Z,99716.44
2023-03-26T01:51:44.027Z,99706.03
2023-03-26T01:54:19.181Z,99712.09
2023-03-26T01:56:57.283Z,99709.50
2023-03-26T01:59:36.111Z,99701.72
2023-03-26T02:02:35.925Z,99701.69
2023-03-26T02:05:16.146Z,99694.84
2023-03-26T02:07:51.333Z,99700.03
2023-03-26T02:10:28.320Z,99700.03
2023-03-26T02:12:59.177Z,99687.94
2023-03-26T02:15:29.320Z,99693.97
2023-03-26T02:18:00.116Z,99693.91
2023-03-26T02:20:30.502Z,99695.59
2023-03-26T02:23:00.751Z,99690.34
2023-03-26T02:25:30.928Z,99689.50
2023-03-26T02:28:01.016Z,99680.88
2023-03-26T02:30:33.802Z,99668.84
2023-03-26T02:33:04.016Z,99679.97
2023-03-26T02:35:34.372Z,99679.97
2023-03-26T02:38:04.565Z,99678.25
2023-03-26T02:40:34.698Z,99670.50
2023-03-26T02:43:04.900Z,99674.84
2023-03-26T02:45:35.126Z,99674.78
2023-03-26T02:48:05.625Z,99670.41
2023-03-26T02:50:37.013Z,99653.25
2023-03-26T02:53:08.397Z,99666.13
2023-03-26T02:55:38.639Z,99656.63
2023-03-26T02:58:08.808Z,99660.13
2023-03-26T03:00:39.255Z,99657.50
2023-03-26T03:03:09.711Z,99648.84
2023-03-26T03:05:43.388Z,99662.69
2023-03-26T03:08:13.578Z,99658.38
2023-03-26T03:10:43.758Z,99649.75
2023-03-26T03:13:13.841Z,99652.31
2023-03-26T03:15:44.310Z,99656.63
2023-03-26T03:18:14.427Z,99650.50
2023-03-26T03:20:44.964Z,99647.91
2023-03-26T03:23:15.119Z,99654.84
2023-03-26T03:25:45.453Z,99660.88
2023-03-26T03:28:18.424Z,99660.88
2023-03-26T03:30:49.092Z,99649.66
2023-03-26T03:33:22.529Z,99658.28
2023-03-26T03:35:53.089Z,99653.94
2023-03-26T03:38:23.464Z,99653.09
2023-03-26T03:40:55.578Z,99653.09
2023-03-26T03:43:25.694Z,99653.16
2023-03-26T03:45:56.260Z,99646.28
2023-03-26T03:48:26.766Z,99644.53
2023-03-26T03:50:57.435Z,99650.59
2023-03-26T03:53:27.493Z,99648.00
2023-03-26T03:55:58.339Z,99638.53
2023-03-26T03:58:31.225Z,99642.94
2023-03-26T04:01:03.189Z,99642.94
2023-03-26T04:03:38.816Z,99644.72
2023-03-26T04:06:11.232Z,99633.50
2023-03-26T04:08:41.409Z,99634.44
2023-03-26T04:11:11.824Z,99635.28
2023-03-26T04:13:41.986Z,99644.78
2023-03-26T04:16:12.200Z,99642.25
2023-03-26T04:18:42.363Z,99637.91
2023-03-26T04:21:15.952Z,99638.75
2023-03-26T04:23:46.194Z,99628.38
2023-03-26T04:26:20.014Z,99636.06
2023-03-26T04:28:54.478Z,99623.94
2023-03-26T04:31:29.610Z,99626.44
2023-03-26T04:34:20.350Z,99626.53
2023-03-26T04:36:54.619Z,99617.91
2023-03-26T04:39:29.433Z,99613.56
2023-03-26T04:42:00.702Z,99611.97
2023-03-26T04:44:31.978Z,99619.66
2023-03-26T04:47:02.221Z,99617.94
2023-03-26T04:49:32.378Z,99618.00
2023-03-26T04:52:02.578Z,99610.28
2023-03-26T04:54:32.655Z,99618.91
2023-03-26T04:57:13.058Z,99610.28
2023-03-26T04:59:43.315Z,99611.13
2023-03-26T05:02:14.195Z,99608.59
2023-03-26T05:04:47.205Z,99612.84
2023-03-26T05:07:20.819Z,99605.09
2023-03-26T05:09:50.934Z,99606.84
2023-03-26T05:12:21.742Z,99608.59
2023-03-26T05:14:51.806Z,99608.69
2023-03-26T05:17:24.562Z,99617.38
2023-03-26T05:19:54.854Z,99603.56
2023-03-26T05:22:24.939Z,99611.44
2023-03-26T05:24:55.120Z,99608.09
2023-03-26T05:27:25.182Z,99604.66
2023-03-26T05:30:01.936Z,99596.97
2023-03-26T05:32:32.550Z,99608.25
2023-03-26T05:35:04.017Z,99590.19
2023-03-26T05:37:34.167Z,99604.72
2023-03-26T05:40:10.633Z,99602.91
2023-03-26T05:42:41.546Z,99600.34
2023-03-26T05:45:13.175Z,99608.88
2023-03-26T05:47:43.564Z,99607.19
2023-03-26T05:50:13.774Z,99602.91
2023-03-26T05:52:44.798Z,99602.00
2023-03-26T05:55:15.027Z,99606.28
2023-03-26T05:57:45.206Z,99596.78
2023-03-26T06:00:15.609Z,99604.53
2023-03-26T06:02:47.044Z,99596.72
2023-03-26T06:05:17.382Z,99598.31
2023-03-26T06:07:47.645Z,99606.03
2023-03-26T06:10:18.398Z,99599.97
2023-03-26T06:12:49.905Z,99604.19
2023-03-26T06:15:20.022Z,99602.56
2023-03-26T06:17:55.161Z,99594.00
2023-03-26T06:20:25.875Z,99605.09
2023-03-26T06:22:56.061Z,99606.84
2023-03-26T06:25:26.237Z,99607.75
2023-03-26T06:27:56.422Z,99603.47
2023-03-26T06:30:29.083Z,99609.44
2023-03-26T06:32:59.209Z,99606.75
2023-03-26T06:35:30.397Z,99614.50
2023-03-26T06:38:00.903Z,99598.22
2023-03-26T06:40:33.467Z,99601.72
2023-03-26T06:43:08.050Z,99611.19
2023-03-26T06:45:40.631Z,99609.50
2023-03-26T06:48:10.908Z,99612.19
2023-03-26T06:50:41.089Z,99593.25
2023-03-26T06:53:11.714Z,99611.28
2023-03-26T06:55:41.953Z,99606.94
2023-03-26T06:58:15.120Z,99604.38
2023-03-26T07:00:45.470Z,99596.69
2023-03-26T07:03:17.410Z,99606.91
2023-03-26T07:05:48.150Z,99603.50
2023-03-26T07:08:18.355Z,99606.22
2023-03-26T07:10:48.438Z,99614.84
2023-03-26T07:13:18.536Z,99609.84
2023-03-26T07:15:49.549Z,99610.84
2023-03-26T07:18:19.670Z,99607.47
2023-03-26T07:20:50.600Z,99614.41
2023-03-26T07:23:21.460Z,99626.44
2023-03-26T07:25:52.148Z,99617.88
2023-03-26T07:29:04.498Z,99620.50
2023-03-26T07:32:03.540Z,99620.56
2023-03-26T07:34:58.363Z,99625.81
2023-03-26T07:38:01.500Z,99624.13
2023-03-26T07:40:40.574Z,99632.03
2023-03-26T07:43:35.605Z,99635.47
2023-03-26T07:46:08.818Z,99632.13
2023-03-26T07:48:42.450Z,99631.25
2023-03-26T07:51:13.271Z,99619.25
2023-03-26T07:53:43.576Z,99626.00
2023-03-26T07:56:19.425Z,99626.84
2023-03-26T07:59:17.143Z,99632.78
2023-03-26T08:01:59.631Z,99626.72
2023-03-26T08:04:56.509Z,99631.03
2023-03-26T08:07:42.767Z,99630.28
2023-03-26T08:10:22.454Z,99626.84
2023-03-26T08:13:04.197Z,99632.09
2023-03-26T08:15:57.830Z,99631.25
2023-03-26T08:18:55.114Z,99634.72
2023-03-26T08:21:38.300Z,99630.47
2023-03-26T08:24:20.519Z,99633.94
2023-03-26T08:27:27.891Z,99632.31
2023-03-26T08:30:08.581Z,99634.88
2023-03-26T08:32:39.041Z,99636.53
2023-03-26T08:35:13.793Z,99639.88
2023-03-26T08:37:45.460Z,99644.09
2023-03-26T08:40:32.204Z,99644.06
2023-03-26T08:43:22.013Z,99645.63
2023-03-26T08:46:20.586Z,99643.81
2023-03-26T08:49:20.225Z,99647.13
2023-03-26T08:52:58.060Z,99635.78
2023-03-26T08:55:56.703Z,99641.69
2023-03-26T08:59:06.603Z,99642.47
2023-03-26T09:02:20.203Z,99642.44
2023-03-26T09:04:56.219Z,99642.41
2023-03-26T09:07:54.359Z,99638.03
2023-03-26T09:10:39.639Z,99637.97
2023-03-26T09:13:21.780Z,99649.16
2023-03-26T09:16:13.472Z,99636.13
2023-03-26T09:19:21.828Z,99639.53
2023-03-26T09:22:31.474Z,99637.81
2023-03-26T09:25:45.877Z,99631.63
2023-03-26T09:28:47.115Z,99635.84
2023-03-26T09:31:59.622Z,99632.28
2023-03-26T09:34:51.024Z,99634.72
2023-03-26T09:37:57.453Z,99637.22
2023-03-26T09:40:37.477Z,99632.94
2023-03-26T09:43:26.261Z,99633.03
2023-03-26T09:46:32.849Z,99633.03
2023-03-26T09:49:46.971Z,99634.03
2023-03-26T09:52:38.631Z,99635.84
2023-03-26T09:55:24.536Z,99630.75
2023-03-26T09:58:13.142Z,99635.84
2023-03-26T10:00:53.320Z,99641.88
2023-03-26T10:03:39.026Z,99644.47
2023-03-26T10:06:20.463Z,99638.22
2023-03-26T10:09:06.101Z,99637.03
2023-03-26T10:12:07.475Z,99648.41
2023-03-26T10:14:55.192Z,99655.56
2023-03-26T10:17:34.259Z,99655.34
2023-03-26T10:20:25.469Z,99645.88
2023-03-26T10:23:03.977Z,99642.47
2023-03-26T10:25:55.614Z,99655.22
2023-03-26T10:28:44.341Z,99642.31
2023-03-26T10:31:26.206Z,99644.81
2023-03-26T10:34:28.686Z,99646.31
2023-03-26T10:37:16.497Z,99659.84
2023-03-26T10:40:24.087Z,99655.75
2023-03-26T10:43:14.862Z,99655.09
2023-03-26T10:45:57.285Z,99649.13
2023-03-26T10:48:45.549Z,99647.44
2023-03-26T10:51:35.246Z,99653.31
2023-03-26T10:54:26.201Z,99649.72
2023-03-26T10:57:00.834Z,99647.72
2023-03-26T10:59:31.099Z,99639.03
2023-03-26T11:02:29.395Z,99647.31
2023-03-26T11:05:03.690Z,99641.72
2023-03-26T11:07:57.948Z,99650.03
2023-03-26T11:10:47.912Z,99638.91
2023-03-26T11:13:42.303Z,99646.78
2023-03-26T11:16:32.676Z,99651.28
2023-03-26T11:19:11.076Z,99659.19
2023-03-26T11:21:53.032Z,99658.38
2023-03-26T11:24:54.144Z,99672.44
2023-03-26T11:28:09.749Z,99688.72
2023-03-26T11:31:08.734Z,99684.22
2023-03-26T11:33:48.530Z,99671.16
2023-03-26T11:36:33.651Z,99683.78
2023-03-26T11:39:10.902Z,99693.69
2023-03-26T11:41:41.026Z,99683.41
2023-03-26T11:44:28.342Z,99674.69
2023-03-26T11:47:04.684Z,99670.78
2023-03-26T11:49:34.964Z,99671.09
2023-03-26T11:52:11.031Z,99670.53
2023-03-26T11:54:41.646Z,99676.78
2023-03-26T11:57:21.365Z,99672.59
2023-03-26T12:00:05.494Z,99674.59
2023-03-26T12:02:41.921Z,99646.88
2023-03-26T12:05:22.971Z,99675.84
2023-03-26T12:07:58.567Z,99664.00
2023-03-26T12:10:43.743Z,99666.38
2023-03-26T12:13:26.652Z,99671.81
2023-03-26T12:16:16.627Z,99667.78
2023-03-26T12:18:57.793Z,99676.16
2023-03-26T12:21:27.900Z,99664.91
2023-03-26T12:24:02.620Z,99661.81
2023-03-26T12:26:49.082Z,99662.66
2023-03-26T12:29:19.309Z,99664.47
2023-03-26T12:32:13.671Z,99661.72
2023-03-26T12:34:44.136Z,99666.00
2023-03-26T12:37:37.807Z,99664.00
2023-03-26T12:40:36.877Z,99657.25
2023-03-26T12:44:55.788Z,99663.44
2023-03-26T12:47:56.265Z,99690.78
2023-03-26T12:49:24.591Z,99689.13
2023-03-26T12:52:02.037Z,99692.94
2023-03-26T12:55:00.502Z,99698.56
2023-03-26T12:57:41.001Z,99688.56
2023-03-26T13:00:24.331Z,99692.81
2023-03-26T13:03:03.463Z,99687.84
2023-03-26T13:05:58.572Z,99681.22
2023-03-26T13:08:50.181Z,99672.97
2023-03-26T13:11:34.950Z,99679.34
2023-03-26T13:14:16.017Z,99675.13
2023-03-26T13:17:19.950Z,99680.50
2023-03-26T13:20:16.000Z,99674.63
2023-03-26T13:23:04.090Z,99671.91
2023-03-26T13:25:53.604Z,99674.59
2023-03-26T13:28:42.334Z,99691.81
2023-03-26T13:31:24.759Z,99686.44
2023-03-26T13:34:19.678Z,99690.25
2023-03-26T13:37:38.908Z,99673.53
2023-03-26T13:40:15.050Z,99693.53
2023-03-26T13:43:09.568Z,99697.31
2023-03-26T13:46:14.626Z,99702.34
2023-03-26T13:49:08.026Z,99704.97
2023-03-26T13:51:47.143Z,99707.25
2023-03-26T13:54:44.735Z,99713.38
2023-03-26T13:57:33.634Z,99706.13
2023-03-26T14:00:58.252Z,99702.22
2023-03-26T14:04:06.208Z,99703.28
2023-03-26T14:06:48.937Z,99704.19
2023-03-26T14:09:34.727Z,99707.06
2023-03-26T14:12:22.190Z,99712.47
2023-03-26T14:15:04.367Z,99718.53
2023-03-26T14:17:39.305Z,99715.19
2023-03-26T14:20:40.803Z,99723.69
2023-03-26T14:23:16.926Z,99720.28
2023-03-26T14:26:05.535Z,99722.16
2023-03-26T14:29:06.047Z,99722.28
2023-03-26T14:31:58.539Z,99728.53
2023-03-26T14:34:41.099Z,99739.25
2023-03-26T14:37:31.866Z,99749.97
2023-03-26T14:40:26.563Z,99741.66
2023-03-26T14:43:21.556Z,99735.38
2023-03-26T14:46:07.625Z,99743.91
2023-03-26T14:48:56.642Z,99739.38
2023-03-26T14:51:55.893Z,99741.53
2023-03-26T14:54:33.839Z,99738.22
2023-03-26T14:57:04.092Z,99739.63
2023-03-26T15:00:15.433Z,99737.84
2023-03-26T15:03:10.429Z,99737.41
2023-03-26T15:06:22.998Z,99738.22
2023-03-26T15:09:30.827Z,99746.69
2023-03-26T15:12:16.369Z,99742.72
2023-03-26T15:15:11.502Z,99742.72
2023-03-26T15:18:00.321Z,99740.19
2023-03-26T15:20:48.953Z,99741.88
2023-03-26T15:23:37.342Z,99745.25
2023-03-26T15:26:11.301Z,99745.22
2023-03-26T15:29:01.239Z,99746.06
2023-03-26T15:32:02.288Z,99752.09
2023-03-26T15:35:04.289Z,99757.84
2023-03-26T15:38:05.196Z,99749.31
2023-03-26T15:40:50.369Z,99750.44
2023-03-26T15:43:52.164Z,99740.94
2023-03-26T15:46:49.025Z,99741.22
2023-03-26T15:49:36.320Z,99742.09
2023-03-26T15:52:29.787Z,99736.91
2023-03-26T15:55:27.888Z,99737.47
2023-03-26T15:58:09.949Z,99741.72
2023-03-26T16:00:57.181Z,99742.56
2023-03-26T16:03:36.056Z,99740.34
2023-03-26T16:06:28.102Z,99744.41
2023-03-26T16:09:23.874Z,99746.59
2023-03-26T16:11:59.896Z,99750.13
2023-03-26T16:14:36.217Z,99762.09
2023-03-26T16:17:12.058Z,99755.81
2023-03-26T16:20:14.018Z,99752.88
2023-03-26T16:22:53.693Z,99767.22
2023-03-26T16:25:31.377Z,99764.19
2023-03-26T16:28:10.712Z,99757.72
2023-03-26T16:30:42.297Z,99761.59
2023-03-26T16:33:19.022Z,99789.63
2023-03-26T16:36:04.787Z,99790.75
2023-03-26T16:39:10.554Z,99796.41
2023-03-26T16:41:45.357Z,99802.72
2023-03-26T16:44:38.887Z,99804.94
2023-03-26T16:47:29.792Z,99810.47
2023-03-26T16:50:08.382Z,99809.84
2023-03-26T16:52:45.540Z,99802.97
2023-03-26T16:55:31.210Z,99805.56
2023-03-26T16:58:40.449Z,99815.13
2023-03-26T17:01:30.505Z,99810.88
2023-03-26T17:04:04.982Z,99817.91
2023-03-26T17:07:09.266Z,99820.50
2023-03-26T17:09:46.663Z,99821.47
2023-03-26T17:12:20.365Z,99818.06
2023-03-26T17:15:06.140Z,99786.50
2023-03-26T17:17:45.543Z,99825.97
2023-03-26T17:20:36.014Z,99833.78
2023-03-26T17:23:41.567Z,99839.91
2023-03-26T17:26:17.002Z,99836.56
2023-03-26T17:29:01.621Z,99846.94
2023-03-26T17:31:37.885Z,99847.03
2023-03-26T17:34:39.439Z,99857.41
2023-03-26T17:37:26.577Z,99858.44
2023-03-26T17:40:08.936Z,99861.22
2023-03-26T17:42:39.155Z,99863.97
2023-03-26T17:45:15.767Z,99870.16
2023-03-26T17:47:51.475Z,99879.00
2023-03-26T17:50:33.828Z,99881.97
2023-03-26T17:53:13.638Z,99889.16
2023-03-26T17:55:46.331Z,99881.56
2023-03-26T17:58:35.637Z,99888.66
2023-03-26T18:01:33.608Z,99884.41
2023-03-26T18:04:08.511Z,99876.75
2023-03-26T18:06:57.385Z,99894.78
2023-03-26T18:09:45.271Z,99899.97
2023-03-26T18:12:15.939Z,99897.63
2023-03-26T18:14:58.413Z,99896.88
2023-03-26T18:17:38.718Z,99909.88
2023-03-26T18:20:23.476Z,99898.78
2023-03-26T18:22:54.715Z,99919.50
2023-03-26T18:25:29.555Z,99922.16
2023-03-26T18:28:02.264Z,99915.31
2023-03-26T18:30:32.518Z,99917.13
2023-03-26T18:33:12.198Z,99926.59
2023-03-26T18:35:45.338Z,99931.00
2023-03-26T18:38:35.561Z,99917.25
2023-03-26T18:41:20.170Z,99932.75
2023-03-26T18:43:50.390Z,99930.16
2023-03-26T18:46:23.921Z,99939.66
2023-03-26T18:48:55.858Z,99934.50
2023-03-26T18:51:27.530Z,99935.38
2023-03-26T18:54:03.321Z,99934.56
2023-03-26T18:56:37.265Z,99929.41
2023-03-26T18:59:32.420Z,99926.03
2023-03-26T19:02:13.653Z,99932.06
2023-03-26T19:04:47.134Z,99932.94
2023-03-26T19:07:22.698Z,99929.53
2023-03-26T19:09:56.552Z,99924.34
2023-03-26T19:12:33.019Z,99919.22
2023-03-26T19:15:07.997Z,99918.38
2023-03-26T19:17:51.702Z,99914.94
2023-03-26T19:20:26.304Z,99906.38
2023-03-26T19:22:57.511Z,99916.72
2023-03-26T19:25:39.036Z,99908.97
2023-03-26T19:28:33.915Z,99909.81
2023-03-26T19:31:19.528Z,99902.09
2023-03-26T19:34:26.211Z,99896.97
2023-03-26T19:37:01.120Z,99913.34
2023-03-26T19:39:43.090Z,99903.84
2023-03-26T19:42:22.240Z,99891.78
2023-03-26T19:44:53.453Z,99890.94
2023-03-26T19:47:48.446Z,99899.53
2023-03-26T19:50:29.212Z,99898.69
2023-03-26T19:53:32.639Z,99888.38
2023-03-26T19:56:08.498Z,99891.81
2023-03-26T19:58:42.037Z,99884.06
2023-03-26T20:01:18.030Z,99880.63
2023-03-26T20:03:51.764Z,99878.88
2023-03-26T20:06:34.139Z,99878.03
2023-03-26T20:09:13.304Z,99873.72
2023-03-26T20:11:44.498Z,99872.03
2023-03-26T20:14:17.098Z,99856.50
2023-03-26T20:16:47.348Z,99856.50
2023-03-26T20:19:18.071Z,99865.13
2023-03-26T20:21:49.087Z,99851.34
2023-03-26T20:24:19.693Z,99853.94
2023-03-26T20:26:50.089Z,99847.91
2023-03-26T20:29:20.413Z,99846.22
2023-03-26T20:31:50.669Z,99853.09
2023-03-26T20:34:23.760Z,99849.66
2023-03-26T20:37:01.227Z,99860.84
2023-03-26T20:39:31.712Z,99857.41
2023-03-26T20:42:01.916Z,99851.34
2023-03-26T20:44:32.101Z,99849.63
2023-03-26T20:47:02.344Z,99844.50
2023-03-26T20:49:32.831Z,99841.03
2023-03-26T20:52:03.067Z,99840.19
2023-03-26T20:54:33.304Z,99844.50
2023-03-26T20:57:03.623Z,99842.78
2023-03-26T20:59:34.922Z,99847.97
2023-03-26T21:02:05.315Z,99843.66
2023-03-26T21:04:35.473Z,99836.78
2023-03-26T21:07:17.815Z,99847.13
2023-03-26T21:09:48.954Z,99843.69
2023-03-26T21:12:33.616Z,99845.41
2023-03-26T21:15:10.225Z,99847.13
2023-03-26T21:17:44.165Z,99840.25
2023-03-26T21:20:16.879Z,99845.41
2023-03-26T21:23:08.889Z,99843.69
2023-03-26T21:25:54.123Z,99841.97
2023-03-26T21:28:41.924Z,99838.53
2023-03-26T21:31:24.369Z,99837.66
2023-03-26T21:33:55.526Z,99831.63
2023-03-26T21:36:26.358Z,99826.47
2023-03-26T21:38:57.217Z,99835.94
2023-03-26T21:41:41.499Z,99841.13
2023-03-26T21:44:12.366Z,99844.53
2023-03-26T21:46:44.435Z,99841.97
2023-03-26T21:49:18.008Z,99846.28
2023-03-26T21:51:49.500Z,99849.72
2023-03-26T21:54:33.402Z,99850.56
2023-03-26T21:57:03.616Z,99852.28
2023-03-26T21:59:41.865Z,99840.22
2023-03-26T22:02:33.620Z,99847.97
2023-03-26T22:05:13.300Z,99841.94
2023-03-26T22:07:49.084Z,99843.69
2023-03-26T22:10:19.286Z,99845.41
2023-03-26T22:12:49.907Z,99840.25
2023-03-26T22:15:20.598Z,99845.41
2023-03-26T22:17:54.373Z,99846.25
2023-03-26T22:20:25.407Z,99852.28
2023-03-26T22:22:56.114Z,99850.56
2023-03-26T22:25:26.532Z,99850.56
2023-03-26T22:27:57.726Z,99851.41
2023-03-26T22:30:27.979Z,99848.00
2023-03-26T22:32:59.204Z,99850.56
2023-03-26T22:35:29.952Z,99847.16
2023-03-26T22:38:01.284Z,99849.72
2023-03-26T22:40:31.601Z,99856.59
2023-03-26T22:43:01.824Z,99854.00
2023-03-26T22:45:32.721Z,99858.31
2023-03-26T22:48:04.620Z,99862.59
2023-03-26T22:50:35.095Z,99860.00
2023-03-26T22:53:05.186Z,99860.84
2023-03-26T22:55:35.383Z,99860.84
2023-03-26T22:58:05.398Z,99860.00
2023-03-26T23:00:36.347Z,99865.16
2023-03-26T23:03:13.937Z,99862.56
2023-03-26T23:05:44.248Z,99866.84
2023-03-26T23:08:15.578Z,99869.44
2023-03-26T23:11:02.946Z,99867.72
2023-03-26T23:13:36.385Z,99867.72
2023-03-26T23:16:12.781Z,99869.41
2023-03-26T23:18:43.899Z,99868.56
2023-03-26T23:21:24.815Z,99871.13
2023-03-26T23:23:54.919Z,99865.97
2023-03-26T23:26:25.009Z,99869.41
2023-03-26T23:28:55.604Z,99868.56
2023-03-26T23:31:27.691Z,99866.00
2023-03-26T23:33:58.402Z,99861.69
2023-03-26T23:36:28.948Z,99866.00
2023-03-26T23:38:59.572Z,99869.44
2023-03-26T23:41:29.690Z,99865.16
2023-03-26T23:43:59.793Z,99868.59
2023-03-26T23:46:36.027Z,99877.19
2023-03-26T23:49:06.610Z,99866.03
2023-03-26T23:51:37.213Z,99862.59
2023-03-26T23:54:07.834Z,99866.88
2023-03-26T23:56:38.222Z,99869.44
2023-03-26T23:59:08.639Z,99869.44
